Time;durP1;ratioP1;P1;durP2;ratioP2;P2;SDS_P1;SDS_P2;PMS_P1;PMS_P2;Temp;Humidity;BMP_temperature;BMP_pressure;BME280_temperature;BME280_humidity;BME280_pressure;Samples;Min_cycle;Max_cycle;Signal;HPM_P1;HPM_P2
2023/08/10 00:01:01;;;;;;;2.05;1.33;;;13.20;99.90;;;;;;5020189;28;20045;-66
2023/08/10 00:03:28;;;;;;;5.70;1.80;;;13.20;99.90;;;;;;5018331;28;20055;-70
2023/08/10 00:05:55;;;;;;;3.67;0.95;;;13.20;99.90;;;;;;5017159;28;20491;-70
2023/08/10 00:08:22;;;;;;;7.88;1.20;;;13.20;99.90;;;;;;5019764;28;20177;-63
2023/08/10 00:10:50;;;;;;;2.55;1.20;;;13.20;99.90;;;;;;5018723;28;20041;-66
2023/08/10 00:13:17;;;;;;;3.97;1.08;;;13.20;99.90;;;;;;5023164;28;20045;-67
2023/08/10 00:15:44;;;;;;;4.38;1.77;;;13.20;99.90;;;;;;5019873;28;20567;-66
2023/08/10 00:18:11;;;;;;;4.68;1.27;;;13.20;99.90;;;;;;5019335;28;20045;-68
2023/08/10 00:20:38;;;;;;;3.97;1.63;;;13.20;99.90;;;;;;5021376;28;20565;-67
2023/08/10 00:23:05;;;;;;;2.03;1.35;;;13.20;99.90;;;;;;5021659;28;20099;-64
2023/08/10 00:25:33;;;;;;;3.95;1.63;;;13.20;99.90;;;;;;5020436;28;20060;-63
2023/08/10 00:28:00;;;;;;;2.85;1.40;;;13.20;99.90;;;;;;5021521;28;20046;-65
2023/08/10 00:30:28;;;;;;;3.58;1.08;;;13.20;99.90;;;;;;5020098;28;20065;-66
2023/08/10 00:32:55;;;;;;;5.38;1.73;;;13.20;99.90;;;;;;5020673;28;20037;-65
2023/08/10 00:35:23;;;;;;;3.00;1.45;;;13.20;99.90;;;;;;5020322;28;20042;-68
2023/08/10 00:37:51;;;;;;;6.20;2.35;;;13.20;99.90;;;;;;5016026;28;20061;-65
2023/08/10 00:40:17;;;;;;;5.40;1.40;;;13.20;99.90;;;;;;5024479;28;20135;-63
2023/08/10 00:42:44;;;;;;;3.35;1.35;;;13.20;99.90;;;;;;5024016;28;20095;-64
2023/08/10 00:45:11;;;;;;;2.35;0.98;;;13.20;99.90;;;;;;5022093;28;20492;-63
2023/08/10 00:47:39;;;;;;;5.70;1.15;;;13.20;99.90;;;;;;5022498;28;20033;-62
2023/08/10 00:50:08;;;;;;;2.25;0.98;;;13.20;99.90;;;;;;5022480;28;20539;-67
2023/08/10 00:52:36;;;;;;;5.22;1.55;;;13.20;99.90;;;;;;5023634;28;20048;-68
2023/08/10 00:55:03;;;;;;;8.20;0.98;;;13.20;99.90;;;;;;5023918;28;20129;-63
2023/08/10 00:57:31;;;;;;;4.93;1.85;;;13.20;99.90;;;;;;5018791;28;20460;-70
2023/08/10 00:59:58;;;;;;;5.20;1.65;;;13.20;99.90;;;;;;5024077;28;20987;-65
2023/08/10 01:02:27;;;;;;;2.65;1.25;;;13.20;99.90;;;;;;5021105;28;20077;-63
2023/08/10 01:04:54;;;;;;;4.43;1.30;;;13.20;99.90;;;;;;5020850;28;20148;-71
2023/08/10 01:07:43;;;;;;;6.25;1.70;;;13.20;99.90;;;;;;5022383;28;20092;-66
2023/08/10 01:10:49;;;;;;;6.13;1.40;;;13.20;99.90;;;;;;5034902;28;20167;-63
2023/08/10 01:13:25;;;;;;;3.30;1.20;;;13.20;99.90;;;;;;5008320;28;20769;-64
2023/08/10 01:15:56;;;;;;;4.80;1.15;;;13.20;99.90;;;;;;5025133;28;20111;-66
2023/08/10 01:18:27;;;;;;;2.10;1.27;;;13.20;99.90;;;;;;5023885;28;20049;-66
2023/08/10 01:20:58;;;;;;;5.18;1.80;;;13.20;99.90;;;;;;5021308;28;20423;-68
2023/08/10 01:23:37;;;;;;;3.08;1.20;;;13.20;99.90;;;;;;5022161;28;20125;-66
2023/08/10 01:26:05;;;;;;;4.37;1.40;;;13.20;99.90;;;;;;5023955;28;20041;-65
2023/08/10 01:28:33;;;;;;;8.23;2.30;;;13.10;99.90;;;;;;5023804;28;20415;-63
2023/08/10 01:31:01;;;;;;;7.53;1.90;;;13.10;99.90;;;;;;5024011;28;20055;-68
2023/08/10 01:33:29;;;;;;;5.65;1.38;;;13.10;99.90;;;;;;5023766;28;20111;-64
2023/08/10 01:35:56;;;;;;;5.00;1.50;;;13.20;99.90;;;;;;5023490;28;20406;-69
2023/08/10 01:38:24;;;;;;;4.78;1.95;;;13.10;99.90;;;;;;5019052;28;20049;-67
2023/08/10 01:40:51;;;;;;;13.88;1.98;;;13.10;99.90;;;;;;5021052;28;20049;-63
2023/08/10 01:43:18;;;;;;;1.92;1.23;;;13.10;99.90;;;;;;5036234;28;20041;-69
2023/08/10 01:45:51;;;;;;;3.78;1.92;;;13.10;99.90;;;;;;5020030;28;20506;-72
2023/08/10 01:48:27;;;;;;;3.67;1.55;;;13.10;99.90;;;;;;5038083;28;20053;-63
2023/08/10 01:50:57;;;;;;;2.83;1.95;;;13.10;99.90;;;;;;5023786;28;20040;-65
2023/08/10 01:53:28;;;;;;;9.75;2.15;;;13.20;99.90;;;;;;5019073;28;20127;-65
2023/08/10 01:55:56;;;;;;;6.50;2.00;;;13.20;99.90;;;;;;5021876;28;20128;-65
2023/08/10 01:58:23;;;;;;;7.95;2.50;;;13.20;99.90;;;;;;5024028;28;20147;-69
2023/08/10 02:00:51;;;;;;;10.15;3.05;;;13.20;99.90;;;;;;5021537;28;20384;-65
2023/08/10 02:03:18;;;;;;;4.28;1.48;;;13.20;99.90;;;;;;5018904;28;20184;-65
2023/08/10 02:05:45;;;;;;;2.60;1.27;;;13.20;99.90;;;;;;5019645;28;20096;-69
2023/08/10 02:08:13;;;;;;;10.90;2.13;;;13.20;99.90;;;;;;5020648;28;20065;-64
2023/08/10 02:10:39;;;;;;;8.52;4.32;;;13.20;99.90;;;;;;5020537;28;20052;-67
2023/08/10 02:13:06;;;;;;;5.93;1.58;;;13.20;99.90;;;;;;5022134;28;20593;-71
2023/08/10 02:15:33;;;;;;;6.90;1.40;;;13.20;99.90;;;;;;5022585;28;20170;-64
2023/08/10 02:18:00;;;;;;;3.65;1.70;;;13.20;99.90;;;;;;5024859;28;20045;-68
2023/08/10 02:20:27;;;;;;;3.92;1.55;;;13.20;99.90;;;;;;5022960;28;20045;-68
2023/08/10 02:22:55;;;;;;;6.85;2.10;;;13.20;99.90;;;;;;5020105;28;20052;-68
2023/08/10 02:25:22;;;;;;;5.82;1.30;;;13.20;99.90;;;;;;5022078;28;20049;-62
2023/08/10 02:27:52;;;;;;;3.05;2.35;;;13.20;99.90;;;;;;5019152;28;20765;-63
2023/08/10 02:30:20;;;;;;;3.30;1.92;;;13.20;99.90;;;;;;5018107;28;20049;-65
2023/08/10 02:32:48;;;;;;;2.70;2.00;;;13.20;99.90;;;;;;5017210;28;20125;-70
2023/08/10 02:35:15;;;;;;;6.78;3.00;;;13.20;99.90;;;;;;5017595;28;20049;-68
2023/08/10 02:37:42;;;;;;;5.15;2.17;;;13.20;99.90;;;;;;5017445;28;20044;-65
2023/08/10 02:40:13;;;;;;;7.13;1.55;;;13.20;99.90;;;;;;5017152;28;20600;-65
2023/08/10 02:42:42;;;;;;;5.75;1.50;;;13.20;99.90;;;;;;5018789;28;20033;-66
2023/08/10 02:45:09;;;;;;;9.13;2.33;;;13.10;99.90;;;;;;5018063;28;20053;-67
2023/08/10 02:47:36;;;;;;;4.55;1.33;;;13.10;99.90;;;;;;5019249;28;20041;-68
2023/08/10 02:50:06;;;;;;;2.92;1.17;;;13.10;99.90;;;;;;5019852;28;20144;-66
2023/08/10 02:52:35;;;;;;;8.43;1.58;;;13.10;99.90;;;;;;5023103;28;20059;-68
2023/08/10 02:55:03;;;;;;;6.38;1.30;;;13.20;99.90;;;;;;5018502;28;20107;-63
2023/08/10 02:57:30;;;;;;;6.43;1.27;;;13.10;99.90;;;;;;5018822;28;20054;-64
2023/08/10 02:59:57;;;;;;;6.75;1.77;;;13.10;99.90;;;;;;5021591;28;20049;-63
2023/08/10 03:02:24;;;;;;;5.53;1.77;;;13.10;99.90;;;;;;5015385;28;20138;-65
2023/08/10 03:04:51;;;;;;;9.65;2.35;;;13.10;99.90;;;;;;5018585;28;20099;-66
2023/08/10 03:07:18;;;;;;;6.35;1.60;;;13.10;99.90;;;;;;5019682;28;20063;-68
2023/08/10 03:09:46;;;;;;;4.50;2.45;;;13.10;99.90;;;;;;5020368;28;20132;-66
2023/08/10 03:12:18;;;;;;;1.63;1.00;;;13.10;99.90;;;;;;5018667;28;20039;-66
2023/08/10 03:14:46;;;;;;;3.53;1.50;;;13.10;99.90;;;;;;5005705;28;20055;-62
2023/08/10 03:17:13;;;;;;;7.50;1.75;;;13.10;99.90;;;;;;5020378;28;20133;-65
2023/08/10 03:19:42;;;;;;;7.93;2.72;;;13.10;99.90;;;;;;5021977;28;20049;-68
2023/08/10 03:22:09;;;;;;;5.82;1.40;;;13.10;99.90;;;;;;5023487;28;20096;-66
2023/08/10 03:24:37;;;;;;;5.22;1.55;;;13.00;99.90;;;;;;5035836;28;20742;-65
2023/08/10 03:27:04;;;;;;;6.47;1.70;;;13.00;99.90;;;;;;5031486;28;20042;-68
2023/08/10 03:29:31;;;;;;;6.97;1.30;;;13.00;99.90;;;;;;5018370;28;20135;-65
2023/08/10 03:31:59;;;;;;;4.38;1.60;;;13.00;99.90;;;;;;5021204;28;20076;-69
2023/08/10 03:34:26;;;;;;;3.20;1.48;;;13.00;99.90;;;;;;5021161;28;20096;-67
2023/08/10 03:36:54;;;;;;;3.72;1.73;;;13.00;99.90;;;;;;5023794;28;20049;-63
2023/08/10 03:39:22;;;;;;;2.92;1.70;;;13.00;99.90;;;;;;5020073;28;20042;-71
2023/08/10 03:41:48;;;;;;;7.65;1.65;;;13.00;99.90;;;;;;5020929;28;20766;-63
2023/08/10 03:44:16;;;;;;;4.10;1.40;;;13.00;99.90;;;;;;5010487;28;20081;-69
2023/08/10 03:46:43;;;;;;;6.70;2.25;;;13.00;99.90;;;;;;5023363;28;20045;-67
2023/08/10 03:49:11;;;;;;;4.15;1.30;;;13.00;99.90;;;;;;5019130;28;20048;-62
2023/08/10 03:51:39;;;;;;;9.45;2.28;;;13.00;99.90;;;;;;5020979;28;20053;-64
2023/08/10 03:54:06;;;;;;;5.43;1.45;;;13.00;99.90;;;;;;5020509;28;20038;-64
2023/08/10 03:56:33;;;;;;;3.10;1.63;;;13.10;99.90;;;;;;5022980;28;20046;-65
2023/08/10 03:59:01;;;;;;;11.98;2.75;;;13.10;99.90;;;;;;5021814;28;20055;-65
2023/08/10 04:01:28;;;;;;;4.50;1.15;;;13.10;99.90;;;;;;5017791;28;20045;-65
2023/08/10 04:03:55;;;;;;;4.50;1.45;;;13.10;99.90;;;;;;5020117;28;20046;-68
2023/08/10 04:06:22;;;;;;;3.72;1.20;;;13.20;99.90;;;;;;5020096;28;21314;-69
2023/08/10 04:08:49;;;;;;;4.10;1.40;;;13.10;99.90;;;;;;5021646;28;20076;-66
2023/08/10 04:11:16;;;;;;;4.72;1.70;;;13.20;99.90;;;;;;5018608;28;20069;-62
2023/08/10 04:13:43;;;;;;;4.68;2.53;;;13.20;99.90;;;;;;5021484;28;20057;-68
2023/08/10 04:16:11;;;;;;;2.65;1.33;;;13.20;99.90;;;;;;5017045;28;20041;-64
2023/08/10 04:18:38;;;;;;;9.07;1.60;;;13.20;99.90;;;;;;5023448;28;20577;-69
2023/08/10 04:21:05;;;;;;;13.77;2.88;;;13.20;99.90;;;;;;5033491;28;20131;-67
2023/08/10 04:23:32;;;;;;;7.03;1.63;;;13.20;99.90;;;;;;5015678;28;20049;-69
2023/08/10 04:25:59;;;;;;;2.95;1.67;;;13.20;99.90;;;;;;5022959;28;20081;-65
2023/08/10 04:28:26;;;;;;;9.63;2.38;;;13.30;99.90;;;;;;5025058;28;20156;-65
2023/08/10 04:30:53;;;;;;;11.07;2.30;;;13.30;99.90;;;;;;5023763;28;20217;-68
2023/08/10 04:33:20;;;;;;;4.93;1.60;;;13.20;99.90;;;;;;5022544;28;20051;-70
2023/08/10 04:35:47;;;;;;;3.38;1.80;;;13.20;99.90;;;;;;5026324;28;20526;-63
2023/08/10 04:38:14;;;;;;;6.57;3.17;;;13.20;99.90;;;;;;5021332;28;20061;-68
2023/08/10 04:40:41;;;;;;;12.23;1.55;;;13.20;99.90;;;;;;5022313;28;20045;-65
2023/08/10 04:43:08;;;;;;;3.17;1.23;;;13.20;99.90;;;;;;5023709;28;20037;-64
2023/08/10 04:45:35;;;;;;;7.70;2.42;;;13.10;99.90;;;;;;5023537;28;20120;-68
2023/08/10 04:48:02;;;;;;;3.83;1.65;;;13.10;99.90;;;;;;5025284;28;20072;-62
2023/08/10 04:50:29;;;;;;;6.00;1.98;;;13.10;99.90;;;;;;5021118;28;20126;-65
2023/08/10 04:52:55;;;;;;;9.32;2.38;;;13.10;99.90;;;;;;5020460;28;20049;-70
2023/08/10 04:55:22;;;;;;;9.82;2.97;;;13.10;99.90;;;;;;5019920;28;20713;-62
2023/08/10 04:57:49;;;;;;;8.23;3.22;;;13.00;99.90;;;;;;5022666;28;20041;-62
2023/08/10 05:00:17;;;;;;;8.82;2.25;;;13.00;99.90;;;;;;5034943;28;20783;-68
2023/08/10 05:02:44;;;;;;;6.82;2.22;;;13.00;99.90;;;;;;5019146;28;20085;-63
2023/08/10 05:05:11;;;;;;;7.55;2.10;;;13.00;99.90;;;;;;5023337;28;20078;-64
2023/08/10 05:07:38;;;;;;;3.63;1.63;;;13.00;99.90;;;;;;5024535;28;20104;-66
2023/08/10 05:10:06;;;;;;;6.18;1.83;;;13.00;99.90;;;;;;5022337;28;20119;-65
2023/08/10 05:12:35;;;;;;;7.03;2.30;;;12.90;99.90;;;;;;5020951;28;20115;-63
2023/08/10 05:15:04;;;;;;;8.30;2.70;;;12.90;99.90;;;;;;5021205;28;20068;-67
2023/08/10 05:17:31;;;;;;;7.80;2.97;;;12.90;99.90;;;;;;5022332;28;20446;-65
2023/08/10 05:19:58;;;;;;;4.57;2.08;;;12.90;99.90;;;;;;5023529;28;20706;-62
2023/08/10 05:22:25;;;;;;;11.32;2.88;;;12.90;99.90;;;;;;5023335;28;20044;-65
2023/08/10 05:24:52;;;;;;;3.25;1.95;;;12.90;99.90;;;;;;5021127;28;20069;-66
2023/08/10 05:27:19;;;;;;;6.40;1.67;;;12.90;99.90;;;;;;5024511;28;20104;-64
2023/08/10 05:29:46;;;;;;;6.13;1.80;;;12.90;99.90;;;;;;5020861;28;20068;-66
2023/08/10 05:32:12;;;;;;;6.95;2.60;;;12.80;99.90;;;;;;5020284;28;20069;-64
2023/08/10 05:34:39;;;;;;;6.28;1.88;;;12.90;99.90;;;;;;5022361;28;20435;-63
2023/08/10 05:37:07;;;;;;;7.10;2.05;;;12.90;99.90;;;;;;5017776;28;20548;-65
2023/08/10 05:39:34;;;;;;;11.48;4.13;;;12.80;99.90;;;;;;5021045;28;20041;-63
2023/08/10 05:42:00;;;;;;;4.38;2.42;;;12.80;99.90;;;;;;5018710;28;20044;-68
2023/08/10 05:44:27;;;;;;;10.52;2.03;;;12.80;99.90;;;;;;5017904;28;20049;-66
2023/08/10 05:46:54;;;;;;;8.18;2.10;;;12.80;99.90;;;;;;5024047;28;20041;-63
2023/08/10 05:49:21;;;;;;;6.90;2.55;;;12.90;99.90;;;;;;5019270;28;20033;-64
2023/08/10 05:51:48;;;;;;;6.35;2.13;;;12.80;99.90;;;;;;5020849;28;20050;-66
2023/08/10 05:54:15;;;;;;;4.32;1.90;;;12.80;99.90;;;;;;5017389;28;20669;-65
2023/08/10 05:56:42;;;;;;;4.72;1.95;;;12.80;99.90;;;;;;5017606;28;20103;-64
2023/08/10 05:59:09;;;;;;;4.82;1.80;;;12.90;99.90;;;;;;5021825;28;20080;-66
2023/08/10 06:01:36;;;;;;;7.55;2.35;;;12.90;99.90;;;;;;5021175;28;20053;-65
2023/08/10 06:04:04;;;;;;;4.85;3.10;;;12.90;99.90;;;;;;5019750;28;20053;-63
2023/08/10 06:06:31;;;;;;;5.25;2.50;;;12.90;99.90;;;;;;5022841;28;20049;-67
2023/08/10 06:08:59;;;;;;;4.80;2.20;;;12.90;99.90;;;;;;4992730;28;1077326;-62
2023/08/10 06:11:26;;;;;;;7.60;2.80;;;12.90;99.90;;;;;;5020791;28;20045;-64
2023/08/10 06:14:12;;;;;;;5.43;2.00;;;12.90;99.90;;;;;;5019774;28;20080;-64
2023/08/10 06:16:39;;;;;;;18.13;3.25;;;13.00;99.90;;;;;;5023307;28;20077;-64
2023/08/10 06:19:05;;;;;;;9.88;2.05;;;12.90;99.90;;;;;;5021767;28;20132;-62
2023/08/10 06:21:33;;;;;;;11.15;3.53;;;12.90;99.90;;;;;;5022137;28;21263;-65
2023/08/10 06:24:00;;;;;;;6.95;2.97;;;12.90;99.90;;;;;;5022332;28;20043;-64
2023/08/10 06:26:27;;;;;;;7.85;2.60;;;12.90;99.90;;;;;;5021819;28;20037;-65
2023/08/10 06:28:54;;;;;;;10.90;2.72;;;12.90;99.90;;;;;;5023592;28;20083;-66
2023/08/10 06:31:21;;;;;;;3.40;2.40;;;12.80;99.90;;;;;;5019777;28;20077;-66
2023/08/10 06:33:48;;;;;;;3.65;2.83;;;12.90;99.90;;;;;;5015551;28;20045;-67
2023/08/10 06:36:15;;;;;;;12.27;4.25;;;12.90;99.90;;;;;;5016408;28;20132;-66
2023/08/10 06:38:42;;;;;;;6.18;1.63;;;12.80;99.90;;;;;;5023532;28;20058;-64
2023/08/10 06:41:09;;;;;;;6.07;1.85;;;12.90;99.90;;;;;;5021155;28;20042;-62
2023/08/10 06:43:35;;;;;;;10.15;2.25;;;12.80;99.90;;;;;;5023975;28;20133;-65
2023/08/10 06:46:02;;;;;;;7.03;1.73;;;12.90;99.90;;;;;;5017997;28;20048;-66
2023/08/10 06:48:29;;;;;;;5.25;1.83;;;12.90;99.90;;;;;;5022571;28;20057;-63
2023/08/10 06:50:57;;;;;;;4.70;1.83;;;13.00;99.90;;;;;;5021019;28;20531;-64
2023/08/10 06:53:24;;;;;;;12.23;1.92;;;13.00;99.90;;;;;;5018829;28;20132;-64
2023/08/10 06:55:50;;;;;;;3.75;1.73;;;13.00;99.90;;;;;;5022487;28;20053;-65
2023/08/10 06:58:18;;;;;;;10.00;3.22;;;13.10;99.90;;;;;;5019446;28;20107;-61
2023/08/10 07:00:48;;;;;;;5.30;2.30;;;13.00;99.90;;;;;;5021762;28;20049;-63
2023/08/10 07:03:15;;;;;;;7.22;2.00;;;13.10;99.90;;;;;;5018114;28;20052;-64
2023/08/10 07:05:43;;;;;;;5.70;2.08;;;13.10;99.90;;;;;;5021326;28;20057;-66
2023/08/10 07:08:10;;;;;;;4.50;1.73;;;13.10;99.90;;;;;;5015775;28;20868;-64
2023/08/10 07:10:37;;;;;;;6.53;2.05;;;13.20;99.90;;;;;;5020108;28;20499;-65
2023/08/10 07:13:04;;;;;;;6.40;2.35;;;13.10;99.90;;;;;;5021937;28;20084;-64
2023/08/10 07:15:35;;;;;;;5.70;3.60;;;13.10;99.90;;;;;;5020809;28;20106;-63
2023/08/10 07:18:02;;;;;;;10.55;3.90;;;13.20;99.90;;;;;;5017077;28;20044;-63
2023/08/10 07:20:31;;;;;;;7.47;2.10;;;13.10;99.90;;;;;;5020202;28;20046;-63
2023/08/10 07:22:59;;;;;;;8.00;2.00;;;13.10;99.90;;;;;;5019482;28;20045;-61
2023/08/10 07:25:27;;;;;;;2.58;1.15;;;13.10;99.90;;;;;;5019801;28;20856;-63
2023/08/10 07:27:54;;;;;;;6.40;2.83;;;13.20;99.90;;;;;;5022037;28;20725;-65
2023/08/10 07:30:22;;;;;;;6.10;2.67;;;13.20;99.90;;;;;;5019965;28;20056;-65
2023/08/10 07:32:49;;;;;;;5.22;1.52;;;13.30;99.90;;;;;;5018164;28;20700;-64
2023/08/10 07:35:15;;;;;;;5.68;1.67;;;13.30;99.90;;;;;;5022348;28;20038;-62
2023/08/10 07:37:42;;;;;;;8.40;2.67;;;13.30;99.90;;;;;;5021335;28;20083;-64
2023/08/10 07:40:11;;;;;;;5.63;2.10;;;13.30;99.90;;;;;;5021631;28;20057;-65
2023/08/10 07:42:38;;;;;;;9.60;2.30;;;13.30;99.90;;;;;;5020293;28;20040;-65
2023/08/10 07:45:09;;;;;;;4.60;1.60;;;13.50;99.90;;;;;;5019032;28;20411;-61
2023/08/10 07:47:36;;;;;;;5.45;1.38;;;13.60;99.90;;;;;;5017647;28;20041;-64
2023/08/10 07:50:05;;;;;;;7.65;2.05;;;13.70;99.90;;;;;;5020485;28;20064;-64
2023/08/10 07:52:32;;;;;;;6.30;2.13;;;13.80;99.90;;;;;;5021016;28;20038;-67
2023/08/10 07:54:59;;;;;;;5.65;2.72;;;13.90;99.90;;;;;;5020447;28;20041;-64
2023/08/10 07:57:26;;;;;;;7.63;2.72;;;13.90;99.90;;;;;;5017913;28;20661;-65
2023/08/10 07:59:53;;;;;;;11.82;3.78;;;13.80;99.90;;;;;;5021652;28;20061;-66
2023/08/10 08:02:20;;;;;;;4.05;1.88;;;13.80;99.90;;;;;;5017450;28;20155;-63
2023/08/10 08:04:47;;;;;;;4.47;1.75;;;13.80;99.90;;;;;;5019749;28;20073;-62
2023/08/10 08:07:16;;;;;;;6.60;2.33;;;13.70;99.90;;;;;;5019874;28;20054;-66
2023/08/10 08:09:42;;;;;;;4.15;1.13;;;13.70;99.90;;;;;;5016627;28;20055;-62
2023/08/10 08:12:09;;;;;;;2.90;0.95;;;13.70;99.90;;;;;;5019085;28;20052;-64
2023/08/10 08:14:36;;;;;;;8.23;2.38;;;13.70;99.90;;;;;;5022119;28;20100;-64
2023/08/10 08:17:03;;;;;;;6.28;2.35;;;13.70;99.90;;;;;;5021797;28;20104;-63
2023/08/10 08:19:32;;;;;;;8.20;2.05;;;13.70;99.90;;;;;;5019826;28;20049;-61
2023/08/10 08:21:59;;;;;;;5.90;2.03;;;13.70;99.90;;;;;;5019079;28;20431;-63
2023/08/10 08:24:27;;;;;;;7.13;2.22;;;13.60;99.90;;;;;;5014708;28;20061;-69
2023/08/10 08:26:56;;;;;;;4.53;1.83;;;13.60;99.90;;;;;;5022596;28;20037;-62
2023/08/10 08:29:23;;;;;;;5.63;1.40;;;13.50;99.90;;;;;;5020215;28;20784;-64
2023/08/10 08:31:50;;;;;;;4.93;1.48;;;13.50;99.90;;;;;;5024624;28;20045;-66
2023/08/10 08:34:19;;;;;;;6.93;1.35;;;13.60;99.90;;;;;;5021725;28;20158;-63
2023/08/10 08:36:47;;;;;;;5.55;1.08;;;13.60;99.90;;;;;;5019049;28;20069;-62
2023/08/10 08:39:14;;;;;;;6.15;2.00;;;13.60;99.90;;;;;;5016445;28;20073;-68
2023/08/10 08:41:41;;;;;;;5.40;1.98;;;13.70;99.90;;;;;;5017817;28;20053;-65
2023/08/10 08:44:09;;;;;;;4.15;1.55;;;13.70;99.90;;;;;;5019089;28;20053;-65
2023/08/10 08:46:41;;;;;;;4.28;1.10;;;13.80;99.90;;;;;;5021467;28;20440;-66
2023/08/10 08:49:09;;;;;;;2.40;1.40;;;13.80;99.90;;;;;;5018840;28;20396;-62
2023/08/10 08:51:36;;;;;;;3.33;1.52;;;13.80;99.90;;;;;;5021551;28;20050;-65
2023/08/10 08:54:04;;;;;;;4.40;1.88;;;13.80;99.90;;;;;;5022323;28;20084;-67
2023/08/10 08:56:31;;;;;;;8.13;1.38;;;13.70;99.90;;;;;;5020421;28;20048;-63
2023/08/10 08:58:59;;;;;;;5.43;2.05;;;13.70;99.90;;;;;;5024141;28;20040;-62
2023/08/10 09:01:26;;;;;;;5.45;1.05;;;13.70;99.90;;;;;;5026235;28;20057;-62
2023/08/10 09:03:53;;;;;;;7.43;1.50;;;13.80;99.90;;;;;;5024715;28;20496;-64
2023/08/10 09:06:20;;;;;;;6.38;2.33;;;13.80;99.90;;;;;;5025280;28;20514;-63
2023/08/10 09:08:47;;;;;;;6.78;1.55;;;13.80;99.90;;;;;;5023496;28;20060;-63
2023/08/10 09:11:14;;;;;;;4.57;1.83;;;14.00;99.90;;;;;;5020089;28;20073;-61
2023/08/10 09:13:41;;;;;;;3.17;1.38;;;14.10;99.90;;;;;;5022921;28;20068;-65
2023/08/10 09:16:13;;;;;;;2.90;1.38;;;14.10;99.90;;;;;;5022237;28;20127;-66
2023/08/10 09:18:44;;;;;;;7.50;2.97;;;14.10;99.90;;;;;;5022166;28;20582;-66
2023/08/10 09:21:15;;;;;;;7.60;1.33;;;14.10;99.90;;;;;;5020766;28;20046;-64
2023/08/10 09:23:47;;;;;;;3.72;1.00;;;14.10;99.90;;;;;;5019904;28;20136;-66
2023/08/10 09:26:19;;;;;;;5.57;1.60;;;14.10;99.90;;;;;;5020375;28;20057;-64
2023/08/10 09:28:50;;;;;;;4.45;1.45;;;14.00;99.90;;;;;;5024402;28;20099;-65
2023/08/10 09:31:25;;;;;;;6.78;1.65;;;14.00;99.90;;;;;;5024492;28;20067;-63
2023/08/10 09:33:58;;;;;;;7.93;1.42;;;14.00;99.90;;;;;;5024239;28;20049;-67
2023/08/10 09:36:27;;;;;;;2.72;1.20;;;13.90;99.90;;;;;;5021785;28;20045;-69
2023/08/10 09:38:55;;;;;;;8.90;1.60;;;13.90;99.90;;;;;;5019751;28;20045;-69
2023/08/10 09:41:27;;;;;;;6.53;2.03;;;13.90;99.90;;;;;;5026553;28;20568;-64
2023/08/10 09:43:53;;;;;;;8.18;1.75;;;14.00;99.90;;;;;;5024704;28;20087;-69
2023/08/10 09:46:21;;;;;;;5.35;2.00;;;14.00;99.90;;;;;;5023808;28;20048;-62
2023/08/10 09:48:49;;;;;;;2.85;1.30;;;14.00;99.90;;;;;;5020374;28;20037;-67
2023/08/10 09:51:17;;;;;;;4.45;1.50;;;14.00;99.90;;;;;;5024308;28;20437;-64
2023/08/10 09:53:44;;;;;;;7.05;2.13;;;14.00;99.90;;;;;;5021936;28;20041;-61
2023/08/10 09:56:11;;;;;;;4.75;1.88;;;14.00;99.90;;;;;;5021278;28;20049;-64
2023/08/10 09:58:41;;;;;;;5.55;3.22;;;14.00;99.90;;;;;;5020450;28;20128;-66
2023/08/10 10:01:10;;;;;;;4.70;2.15;;;14.00;99.90;;;;;;5020663;28;20056;-65
2023/08/10 10:03:43;;;;;;;7.70;3.42;;;14.00;99.90;;;;;;5018305;28;20045;-64
2023/08/10 10:06:11;;;;;;;5.97;2.00;;;14.10;99.90;;;;;;5023071;28;20108;-65
2023/08/10 10:08:40;;;;;;;8.98;1.92;;;14.10;99.90;;;;;;5018643;28;21003;-64
2023/08/10 10:11:13;;;;;;;5.60;2.42;;;14.10;99.90;;;;;;5020211;28;20168;-64
2023/08/10 10:13:41;;;;;;;5.82;2.05;;;14.10;99.90;;;;;;5023433;28;20034;-64
2023/08/10 10:16:10;;;;;;;3.35;2.00;;;14.10;99.90;;;;;;5023304;28;20469;-62
2023/08/10 10:18:37;;;;;;;7.00;1.95;;;14.10;99.90;;;;;;5020245;28;20577;-62
2023/08/10 10:21:05;;;;;;;7.85;2.35;;;14.20;99.90;;;;;;5022890;28;20042;-62
2023/08/10 10:23:32;;;;;;;4.20;1.88;;;14.10;99.90;;;;;;5019618;28;20058;-64
2023/08/10 10:26:06;;;;;;;3.58;1.80;;;14.20;99.90;;;;;;5023393;28;20044;-62
2023/08/10 10:28:34;;;;;;;2.88;1.60;;;14.20;99.90;;;;;;5022661;28;20048;-64
2023/08/10 10:31:04;;;;;;;11.10;2.13;;;14.30;99.90;;;;;;5022343;28;20042;-62
2023/08/10 10:33:32;;;;;;;2.83;1.05;;;14.30;99.90;;;;;;5018912;28;20053;-68
2023/08/10 10:36:18;;;;;;;10.57;1.77;;;14.20;99.90;;;;;;5019008;28;20675;-66
2023/08/10 10:38:56;;;;;;;4.22;2.15;;;14.20;99.90;;;;;;5020107;28;20049;-65
2023/08/10 10:41:35;;;;;;;4.35;1.10;;;14.20;99.90;;;;;;5023619;28;20048;-64
2023/08/10 10:44:03;;;;;;;3.60;1.50;;;14.30;99.90;;;;;;5021486;28;20030;-63
2023/08/10 10:46:33;;;;;;;13.95;1.63;;;14.40;99.90;;;;;;5025721;28;20084;-66
2023/08/10 10:49:14;;;;;;;7.10;2.20;;;14.40;99.90;;;;;;5018753;28;20048;-62
2023/08/10 10:52:04;;;;;;;3.00;1.52;;;14.40;99.90;;;;;;5020400;28;20056;-69
2023/08/10 10:54:35;;;;;;;4.10;1.52;;;14.40;99.90;;;;;;5021586;28;20073;-68
2023/08/10 10:57:03;;;;;;;;;;;14.40;99.90;;;;;;5018905;28;20048;-66
2023/08/10 10:59:30;;;;;;;3.85;1.55;;;14.40;99.90;;;;;;5019693;28;20008;-64
2023/08/10 11:01:58;;;;;;;7.28;1.80;;;14.30;99.90;;;;;;5018966;28;20050;-62
2023/08/10 11:04:25;;;;;;;3.88;1.77;;;14.30;99.90;;;;;;5022948;28;20710;-64
2023/08/10 11:06:58;;;;;;;10.30;1.88;;;14.30;99.90;;;;;;5017803;28;20138;-66
2023/08/10 11:09:25;;;;;;;14.00;2.08;;;14.30;99.90;;;;;;5017116;28;20590;-64
2023/08/10 11:11:52;;;;;;;5.13;1.50;;;14.30;99.90;;;;;;5020853;28;20103;-65
2023/08/10 11:14:19;;;;;;;6.38;2.65;;;14.20;99.90;;;;;;5020954;28;20056;-64
2023/08/10 11:16:47;;;;;;;4.53;1.88;;;14.20;99.90;;;;;;5017999;28;20065;-69
2023/08/10 11:19:14;;;;;;;6.65;1.63;;;14.20;99.90;;;;;;5022524;28;20059;-68
2023/08/10 11:21:51;;;;;;;4.68;2.20;;;14.20;99.90;;;;;;5021227;28;20149;-62
2023/08/10 11:24:18;;;;;;;7.18;3.50;;;14.20;99.90;;;;;;5018894;28;20043;-62
2023/08/10 11:26:47;;;;;;;3.33;2.80;;;14.20;99.90;;;;;;5021418;28;20076;-67
2023/08/10 11:29:19;;;;;;;8.07;2.22;;;14.10;99.90;;;;;;5021418;28;20041;-66
2023/08/10 11:31:46;;;;;;;8.70;2.28;;;14.10;99.90;;;;;;5020378;28;20095;-63
2023/08/10 11:34:23;;;;;;;4.95;1.45;;;14.00;99.90;;;;;;5020156;28;20176;-63
2023/08/10 11:36:52;;;;;;;3.83;1.65;;;14.00;99.90;;;;;;5021204;28;20125;-64
2023/08/10 11:39:20;;;;;;;3.47;1.33;;;13.90;99.90;;;;;;5015866;28;20037;-66
2023/08/10 11:41:47;;;;;;;4.30;2.15;;;13.90;99.90;;;;;;5019630;28;20045;-68
2023/08/10 11:44:28;;;;;;;2.85;1.45;;;14.00;99.90;;;;;;5016771;28;20045;-67
2023/08/10 11:46:57;;;;;;;2.97;1.90;;;13.90;99.90;;;;;;5021709;28;20060;-65
2023/08/10 11:49:26;;;;;;;2.30;1.50;;;14.00;99.90;;;;;;5020793;28;20068;-62
2023/08/10 11:51:57;;;;;;;3.33;1.10;;;14.00;99.90;;;;;;5022924;28;20068;-62
2023/08/10 11:54:29;;;;;;;3.13;1.65;;;14.00;99.90;;;;;;5019707;28;20049;-67
2023/08/10 11:56:55;;;;;;;4.97;1.77;;;14.00;99.90;;;;;;5021210;28;20041;-63
2023/08/10 11:59:22;;;;;;;6.95;1.50;;;14.00;99.90;;;;;;5020366;28;20041;-63
2023/08/10 12:01:54;;;;;;;7.30;2.28;;;14.00;99.90;;;;;;5022720;28;20037;-66
2023/08/10 12:04:21;;;;;;;3.05;1.65;;;14.00;99.90;;;;;;5020883;28;20045;-65
2023/08/10 12:06:48;;;;;;;2.42;0.98;;;14.00;99.90;;;;;;5019108;28;20037;-66
2023/08/10 12:09:16;;;;;;;2.67;1.00;;;14.10;99.90;;;;;;5019504;28;20104;-65
2023/08/10 12:11:49;;;;;;;5.32;1.48;;;14.00;99.90;;;;;;5019738;28;20111;-63
2023/08/10 12:14:19;;;;;;;2.13;1.63;;;14.10;99.90;;;;;;5020539;28;20053;-61
2023/08/10 12:16:46;;;;;;;6.38;3.30;;;14.10;99.90;;;;;;5019681;28;20495;-63
2023/08/10 12:19:13;;;;;;;4.38;2.35;;;14.00;99.90;;;;;;5022002;28;20049;-64
2023/08/10 12:21:40;;;;;;;3.22;1.30;;;14.00;99.90;;;;;;5020285;28;20052;-65
2023/08/10 12:24:07;;;;;;;3.05;1.90;;;14.10;99.90;;;;;;5018376;28;20659;-62
2023/08/10 12:26:34;;;;;;;9.35;1.77;;;14.20;99.90;;;;;;5019932;28;20125;-65
2023/08/10 12:29:01;;;;;;;6.18;2.38;;;14.20;99.90;;;;;;5019944;28;20068;-65
2023/08/10 12:31:29;;;;;;;3.40;1.02;;;14.10;99.90;;;;;;5019585;28;20045;-66
2023/08/10 12:33:57;;;;;;;7.20;2.85;;;14.20;99.90;;;;;;5021267;28;20041;-65
2023/08/10 12:36:24;;;;;;;3.75;2.08;;;14.20;99.90;;;;;;5023968;28;20069;-63
2023/08/10 12:38:50;;;;;;;2.20;1.40;;;14.20;99.90;;;;;;5019383;28;20068;-62
2023/08/10 12:41:17;;;;;;;2.83;1.63;;;14.20;99.90;;;;;;5022947;28;20452;-62
2023/08/10 12:43:44;;;;;;;2.92;1.10;;;14.20;99.90;;;;;;5022603;28;20049;-66
2023/08/10 12:46:11;;;;;;;5.28;1.85;;;14.30;99.90;;;;;;5024015;28;20119;-64
2023/08/10 12:48:38;;;;;;;2.90;1.08;;;14.40;99.90;;;;;;5022101;28;20037;-63
2023/08/10 12:51:07;;;;;;;3.05;1.40;;;14.40;99.90;;;;;;5026533;28;20545;-64